This is the latest recevied weather packets stored in our database for station/object K9MWD. If no packets are shown the sender has not sent any weather packets the latest 10 day(s).
| Time | Temp. | Humidity | Pressure | Rain* | Wind** | Luminosity | Snow |
|---|---|---|---|---|---|---|---|
| 1777766301 | 24.44° C | 30% | 1019 hPa | 0 mm | - | 87 W/m² | - |
| 1777765998 | 24.44° C | 30% | 1019 hPa | 0 mm | - | 98 W/m² | - |
| 1777765695 | 25.56° C | 30% | 1019.2 hPa | 0 mm | - | 111 W/m² | - |
| 1777765392 | 25° C | 30% | 1018.9 hPa | 0 mm | - | 123 W/m² | - |
| 1777765088 | 25° C | 31% | 1018.9 hPa | 0 mm | - | 136 W/m² | - |
| 1777764784 | 25° C | 31% | 1019.1 hPa | 0 mm | - | 149 W/m² | - |
| 1777764481 | 25° C | 31% | 1019 hPa | 0 mm | - | 165 W/m² | - |
| 1777764178 | 25° C | 31% | 1019.3 hPa | 0 mm | - | 180 W/m² | - |
| 1777763874 | 24.44° C | 32% | 1019.1 hPa | 0 mm | - | 195 W/m² | - |
| 1777763572 | 24.44° C | 32% | 1019.1 hPa | 0 mm | - | 209 W/m² | - |
| 1777763270 | 25° C | 32% | 1019.1 hPa | 0 mm | - | 227 W/m² | - |
| 1777762968 | 25° C | 31% | 1019 hPa | 0 mm | - | 247 W/m² | - |
| 1777762665 | 25.56° C | 31% | 1019.1 hPa | 0 mm | - | 262 W/m² | - |
| 1777762362 | 25° C | 33% | 1019.1 hPa | 0 mm | - | 282 W/m² | - |
| 1777762058 | 24.44° C | 32% | 1019.2 hPa | 0 mm | - | 300 W/m² | - |
| 1777761754 | 25° C | 31% | 1019.3 hPa | 0 mm | - | 319 W/m² | - |
| 1777761452 | 24.44° C | 31% | 1019.3 hPa | 0 mm | - | 332 W/m² | - |
| 1777761150 | 24.44° C | 33% | 1019.3 hPa | 0 mm | - | 179 W/m² | - |
| 1777760847 | 25° C | 30% | 1019.3 hPa | 0 mm | - | 363 W/m² | - |
| 1777760544 | 25° C | 32% | 1019.3 hPa | 0 mm | - | 388 W/m² | - |
| 1777760240 | 26.67° C | 30% | 1019.3 hPa | 0 mm | - | 409 W/m² | - |
| 1777759937 | 26.11° C | 29% | 1019.3 hPa | 0 mm | - | 425 W/m² | - |
| 1777759633 | 25° C | 30% | 1019.2 hPa | 0 mm | - | 442 W/m² | - |
| 1777759329 | 25° C | 30% | 1019.5 hPa | 0 mm | - | 463 W/m² | - |
| 1777759027 | 25° C | 31% | 1019.4 hPa | 0 mm | - | 483 W/m² | - |
* Rain latest hour (hover to see other rain measurements)
** Current wind speed in m/s (hover to see current wind gust speed)